sensor_id;sensor_type;location;lat;lon;timestamp;P1;durP1;ratioP1;P2;durP2;ratioP2
61291;SDS011;47165;42.664;23.368;2024-03-23T00:55:41;3.40;;;1.73;;
61291;SDS011;47165;42.664;23.368;2024-03-23T00:58:09;4.07;;;1.95;;
61291;SDS011;47165;42.664;23.368;2024-03-23T01:00:34;5.22;;;1.77;;
61291;SDS011;47165;42.664;23.368;2024-03-23T01:03:00;2.10;;;1.23;;
61291;SDS011;47165;42.664;23.368;2024-03-23T01:05:26;1.63;;;1.30;;
61291;SDS011;47165;42.664;23.368;2024-03-23T01:07:52;3.15;;;2.15;;
61291;SDS011;47165;42.664;23.368;2024-03-23T01:10:17;4.50;;;1.98;;
61291;SDS011;47165;42.664;23.368;2024-03-23T01:12:43;3.40;;;1.67;;
61291;SDS011;47165;42.664;23.368;2024-03-23T01:15:09;2.70;;;1.98;;
61291;SDS011;47165;42.664;23.368;2024-03-23T01:17:34;4.13;;;2.03;;
61291;SDS011;47165;42.664;23.368;2024-03-23T01:20:00;2.30;;;1.40;;
61291;SDS011;47165;42.664;23.368;2024-03-23T01:22:25;4.00;;;1.83;;
61291;SDS011;47165;42.664;23.368;2024-03-23T01:24:51;4.50;;;1.80;;
61291;SDS011;47165;42.664;23.368;2024-03-23T01:27:16;5.93;;;2.75;;
61291;SDS011;47165;42.664;23.368;2024-03-23T01:29:42;2.88;;;1.85;;
61291;SDS011;47165;42.664;23.368;2024-03-23T01:32:07;5.65;;;2.15;;
61291;SDS011;47165;42.664;23.368;2024-03-23T01:34:34;4.13;;;1.95;;
61291;SDS011;47165;42.664;23.368;2024-03-23T01:36:59;2.80;;;1.40;;
61291;SDS011;47165;42.664;23.368;2024-03-23T01:39:25;3.78;;;1.95;;
61291;SDS011;47165;42.664;23.368;2024-03-23T01:41:50;3.00;;;1.75;;
61291;SDS011;47165;42.664;23.368;2024-03-23T01:44:16;2.17;;;1.25;;
61291;SDS011;47165;42.664;23.368;2024-03-23T01:46:42;3.63;;;1.75;;
61291;SDS011;47165;42.664;23.368;2024-03-23T01:49:09;5.18;;;1.73;;
61291;SDS011;47165;42.664;23.368;2024-03-23T01:51:35;3.08;;;2.00;;
61291;SDS011;47165;42.664;23.368;2024-03-23T01:54:01;2.47;;;1.60;;
61291;SDS011;47165;42.664;23.368;2024-03-23T01:56:31;3.88;;;1.95;;
61291;SDS011;47165;42.664;23.368;2024-03-23T01:59:04;2.13;;;1.73;;
61291;SDS011;47165;42.664;23.368;2024-03-23T02:01:33;4.20;;;1.90;;
61291;SDS011;47165;42.664;23.368;2024-03-23T02:04:03;3.90;;;1.77;;
61291;SDS011;47165;42.664;23.368;2024-03-23T02:06:30;3.88;;;1.65;;
61291;SDS011;47165;42.664;23.368;2024-03-23T02:08:55;2.33;;;1.55;;
61291;SDS011;47165;42.664;23.368;2024-03-23T02:11:21;2.22;;;1.67;;
61291;SDS011;47165;42.664;23.368;2024-03-23T02:13:47;3.58;;;1.90;;
61291;SDS011;47165;42.664;23.368;2024-03-23T02:16:12;5.07;;;1.90;;
61291;SDS011;47165;42.664;23.368;2024-03-23T02:18:39;3.40;;;2.20;;
61291;SDS011;47165;42.664;23.368;2024-03-23T02:21:06;8.68;;;2.25;;
61291;SDS011;47165;42.664;23.368;2024-03-23T02:23:31;2.22;;;1.10;;
61291;SDS011;47165;42.664;23.368;2024-03-23T02:25:57;2.80;;;2.17;;
61291;SDS011;47165;42.664;23.368;2024-03-23T02:28:22;3.00;;;1.60;;
61291;SDS011;47165;42.664;23.368;2024-03-23T02:30:51;2.58;;;1.67;;
61291;SDS011;47165;42.664;23.368;2024-03-23T02:33:17;2.28;;;1.40;;
61291;SDS011;47165;42.664;23.368;2024-03-23T02:35:46;4.85;;;2.10;;
61291;SDS011;47165;42.664;23.368;2024-03-23T02:38:12;1.58;;;1.23;;
61291;SDS011;47165;42.664;23.368;2024-03-23T02:40:37;2.15;;;1.45;;
61291;SDS011;47165;42.664;23.368;2024-03-23T02:43:03;3.70;;;1.40;;
61291;SDS011;47165;42.664;23.368;2024-03-23T02:45:29;2.95;;;1.88;;
61291;SDS011;47165;42.664;23.368;2024-03-23T02:47:55;5.00;;;1.58;;
61291;SDS011;47165;42.664;23.368;2024-03-23T02:50:21;4.82;;;1.70;;
61291;SDS011;47165;42.664;23.368;2024-03-23T02:52:47;3.13;;;1.80;;
61291;SDS011;47165;42.664;23.368;2024-03-23T02:55:13;3.28;;;1.38;;
61291;SDS011;47165;42.664;23.368;2024-03-23T02:57:39;2.88;;;1.83;;
61291;SDS011;47165;42.664;23.368;2024-03-23T03:00:05;2.33;;;1.42;;
61291;SDS011;47165;42.664;23.368;2024-03-23T03:02:32;2.03;;;1.27;;
61291;SDS011;47165;42.664;23.368;2024-03-23T03:04:58;2.03;;;1.15;;
61291;SDS011;47165;42.664;23.368;2024-03-23T03:07:24;2.33;;;1.48;;
61291;SDS011;47165;42.664;23.368;2024-03-23T03:09:49;4.07;;;2.10;;
61291;SDS011;47165;42.664;23.368;2024-03-23T03:12:15;3.22;;;1.75;;
61291;SDS011;47165;42.664;23.368;2024-03-23T03:14:40;1.67;;;1.05;;
61291;SDS011;47165;42.664;23.368;2024-03-23T03:17:06;2.88;;;1.38;;
61291;SDS011;47165;42.664;23.368;2024-03-23T03:19:31;3.75;;;1.58;;
61291;SDS011;47165;42.664;23.368;2024-03-23T03:21:57;4.57;;;1.58;;
61291;SDS011;47165;42.664;23.368;2024-03-23T03:24:23;2.33;;;1.50;;
61291;SDS011;47165;42.664;23.368;2024-03-23T03:26:48;2.30;;;1.73;;
61291;SDS011;47165;42.664;23.368;2024-03-23T03:29:14;2.67;;;1.60;;
61291;SDS011;47165;42.664;23.368;2024-03-23T03:31:40;5.50;;;2.03;;
61291;SDS011;47165;42.664;23.368;2024-03-23T03:34:06;3.42;;;1.88;;
61291;SDS011;47165;42.664;23.368;2024-03-23T03:36:33;2.65;;;1.52;;
61291;SDS011;47165;42.664;23.368;2024-03-23T03:38:59;4.00;;;1.77;;
61291;SDS011;47165;42.664;23.368;2024-03-23T03:41:25;5.03;;;2.30;;
61291;SDS011;47165;42.664;23.368;2024-03-23T03:43:51;4.00;;;1.88;;
61291;SDS011;47165;42.664;23.368;2024-03-23T03:46:16;1.80;;;1.10;;
61291;SDS011;47165;42.664;23.368;2024-03-23T03:48:42;1.77;;;0.93;;
61291;SDS011;47165;42.664;23.368;2024-03-23T03:51:11;2.67;;;1.55;;
61291;SDS011;47165;42.664;23.368;2024-03-23T03:53:36;4.45;;;2.25;;
61291;SDS011;47165;42.664;23.368;2024-03-23T03:56:02;1.50;;;1.30;;
61291;SDS011;47165;42.664;23.368;2024-03-23T03:58:28;2.03;;;1.50;;
61291;SDS011;47165;42.664;23.368;2024-03-23T04:00:53;2.65;;;1.65;;
61291;SDS011;47165;42.664;23.368;2024-03-23T04:03:19;3.33;;;1.80;;
61291;SDS011;47165;42.664;23.368;2024-03-23T04:05:53;3.83;;;2.17;;
61291;SDS011;47165;42.664;23.368;2024-03-23T04:08:19;2.90;;;1.52;;
61291;SDS011;47165;42.664;23.368;2024-03-23T04:10:45;1.92;;;1.58;;
61291;SDS011;47165;42.664;23.368;2024-03-23T04:13:11;1.88;;;1.73;;
61291;SDS011;47165;42.664;23.368;2024-03-23T04:15:37;2.55;;;1.38;;
61291;SDS011;47165;42.664;23.368;2024-03-23T04:18:02;4.50;;;2.03;;
61291;SDS011;47165;42.664;23.368;2024-03-23T04:20:28;2.28;;;1.60;;
61291;SDS011;47165;42.664;23.368;2024-03-23T04:22:54;3.80;;;1.88;;
61291;SDS011;47165;42.664;23.368;2024-03-23T04:25:19;2.65;;;1.60;;
61291;SDS011;47165;42.664;23.368;2024-03-23T04:27:45;3.65;;;1.70;;
61291;SDS011;47165;42.664;23.368;2024-03-23T04:30:11;2.42;;;1.52;;
61291;SDS011;47165;42.664;23.368;2024-03-23T04:32:37;3.40;;;1.95;;
61291;SDS011;47165;42.664;23.368;2024-03-23T04:35:03;1.70;;;1.38;;
61291;SDS011;47165;42.664;23.368;2024-03-23T04:37:32;2.28;;;1.63;;
61291;SDS011;47165;42.664;23.368;2024-03-23T04:39:59;2.90;;;2.10;;
61291;SDS011;47165;42.664;23.368;2024-03-23T04:42:26;4.70;;;2.15;;
61291;SDS011;47165;42.664;23.368;2024-03-23T04:44:52;3.20;;;2.05;;
61291;SDS011;47165;42.664;23.368;2024-03-23T04:47:18;5.38;;;2.10;;
61291;SDS011;47165;42.664;23.368;2024-03-23T04:49:43;5.20;;;1.65;;
61291;SDS011;47165;42.664;23.368;2024-03-23T04:52:09;2.03;;;1.25;;
61291;SDS011;47165;42.664;23.368;2024-03-23T04:54:35;2.60;;;1.33;;
61291;SDS011;47165;42.664;23.368;2024-03-23T04:57:00;4.72;;;2.08;;
61291;SDS011;47165;42.664;23.368;2024-03-23T04:59:26;2.35;;;1.73;;
61291;SDS011;47165;42.664;23.368;2024-03-23T05:01:52;5.85;;;1.98;;
61291;SDS011;47165;42.664;23.368;2024-03-23T05:04:18;3.95;;;1.90;;
61291;SDS011;47165;42.664;23.368;2024-03-23T05:06:43;3.25;;;2.03;;
61291;SDS011;47165;42.664;23.368;2024-03-23T05:09:09;5.07;;;2.25;;
61291;SDS011;47165;42.664;23.368;2024-03-23T05:11:38;3.03;;;1.75;;
61291;SDS011;47165;42.664;23.368;2024-03-23T05:14:04;9.02;;;2.00;;
61291;SDS011;47165;42.664;23.368;2024-03-23T05:16:29;5.35;;;2.20;;
61291;SDS011;47165;42.664;23.368;2024-03-23T05:18:55;5.22;;;2.42;;
61291;SDS011;47165;42.664;23.368;2024-03-23T05:21:20;4.57;;;2.78;;
61291;SDS011;47165;42.664;23.368;2024-03-23T05:23:46;4.07;;;2.10;;
61291;SDS011;47165;42.664;23.368;2024-03-23T05:26:12;4.95;;;2.33;;
61291;SDS011;47165;42.664;23.368;2024-03-23T05:28:38;2.25;;;1.67;;
61291;SDS011;47165;42.664;23.368;2024-03-23T05:31:04;4.18;;;1.77;;
61291;SDS011;47165;42.664;23.368;2024-03-23T05:33:29;5.15;;;2.22;;
61291;SDS011;47165;42.664;23.368;2024-03-23T05:35:59;2.58;;;1.77;;
61291;SDS011;47165;42.664;23.368;2024-03-23T05:38:26;4.15;;;2.30;;
61291;SDS011;47165;42.664;23.368;2024-03-23T05:40:55;3.80;;;1.60;;
61291;SDS011;47165;42.664;23.368;2024-03-23T05:43:21;2.42;;;1.15;;
61291;SDS011;47165;42.664;23.368;2024-03-23T05:45:56;2.20;;;1.10;;
61291;SDS011;47165;42.664;23.368;2024-03-23T05:48:23;1.70;;;1.10;;
61291;SDS011;47165;42.664;23.368;2024-03-23T05:50:50;2.67;;;1.60;;
61291;SDS011;47165;42.664;23.368;2024-03-23T05:53:16;1.85;;;1.45;;
61291;SDS011;47165;42.664;23.368;2024-03-23T05:55:42;2.72;;;1.70;;
61291;SDS011;47165;42.664;23.368;2024-03-23T05:58:08;1.83;;;1.27;;
61291;SDS011;47165;42.664;23.368;2024-03-23T06:00:34;3.53;;;1.80;;
61291;SDS011;47165;42.664;23.368;2024-03-23T06:03:00;2.47;;;1.67;;
61291;SDS011;47165;42.664;23.368;2024-03-23T06:05:26;3.38;;;1.80;;
61291;SDS011;47165;42.664;23.368;2024-03-23T06:07:52;3.28;;;1.75;;
61291;SDS011;47165;42.664;23.368;2024-03-23T06:10:17;1.75;;;1.60;;
61291;SDS011;47165;42.664;23.368;2024-03-23T06:12:43;2.15;;;1.27;;
61291;SDS011;47165;42.664;23.368;2024-03-23T06:15:10;4.82;;;1.40;;
61291;SDS011;47165;42.664;23.368;2024-03-23T06:17:36;5.30;;;2.03;;
61291;SDS011;47165;42.664;23.368;2024-03-23T06:20:02;2.97;;;1.88;;
61291;SDS011;47165;42.664;23.368;2024-03-23T06:22:28;3.30;;;1.67;;
61291;SDS011;47165;42.664;23.368;2024-03-23T06:24:53;2.05;;;1.50;;
61291;SDS011;47165;42.664;23.368;2024-03-23T06:27:19;2.05;;;1.42;;
61291;SDS011;47165;42.664;23.368;2024-03-23T06:29:44;4.32;;;1.85;;
61291;SDS011;47165;42.664;23.368;2024-03-23T06:32:10;4.28;;;1.65;;
61291;SDS011;47165;42.664;23.368;2024-03-23T06:34:35;2.88;;;1.33;;
61291;SDS011;47165;42.664;23.368;2024-03-23T06:37:00;2.22;;;1.88;;
61291;SDS011;47165;42.664;23.368;2024-03-23T06:39:26;4.90;;;1.70;;
61291;SDS011;47165;42.664;23.368;2024-03-23T06:41:52;2.20;;;1.33;;
61291;SDS011;47165;42.664;23.368;2024-03-23T06:44:19;2.92;;;1.92;;
61291;SDS011;47165;42.664;23.368;2024-03-23T06:46:45;4.03;;;2.60;;
61291;SDS011;47165;42.664;23.368;2024-03-23T06:49:11;2.83;;;2.28;;
61291;SDS011;47165;42.664;23.368;2024-03-23T06:51:42;5.20;;;3.13;;
61291;SDS011;47165;42.664;23.368;2024-03-23T06:54:07;4.13;;;2.15;;
61291;SDS011;47165;42.664;23.368;2024-03-23T06:56:34;7.65;;;3.85;;
61291;SDS011;47165;42.664;23.368;2024-03-23T06:58:59;5.68;;;2.80;;
61291;SDS011;47165;42.664;23.368;2024-03-23T07:01:25;3.90;;;2.40;;
61291;SDS011;47165;42.664;23.368;2024-03-23T07:03:50;6.20;;;3.20;;
61291;SDS011;47165;42.664;23.368;2024-03-23T07:06:16;6.05;;;3.47;;
61291;SDS011;47165;42.664;23.368;2024-03-23T07:08:41;7.43;;;3.75;;
61291;SDS011;47165;42.664;23.368;2024-03-23T07:11:07;8.95;;;4.07;;
61291;SDS011;47165;42.664;23.368;2024-03-23T07:13:33;5.32;;;3.05;;
61291;SDS011;47165;42.664;23.368;2024-03-23T07:15:58;9.23;;;4.20;;
61291;SDS011;47165;42.664;23.368;2024-03-23T07:18:25;6.18;;;4.15;;
61291;SDS011;47165;42.664;23.368;2024-03-23T07:20:57;8.85;;;4.35;;
61291;SDS011;47165;42.664;23.368;2024-03-23T07:23:23;10.65;;;4.25;;
61291;SDS011;47165;42.664;23.368;2024-03-23T07:26:02;7.57;;;3.97;;
61291;SDS011;47165;42.664;23.368;2024-03-23T07:28:29;6.63;;;3.80;;
61291;SDS011;47165;42.664;23.368;2024-03-23T07:31:03;7.65;;;3.47;;
61291;SDS011;47165;42.664;23.368;2024-03-23T07:33:29;10.15;;;5.70;;
61291;SDS011;47165;42.664;23.368;2024-03-23T07:35:56;7.80;;;3.78;;
61291;SDS011;47165;42.664;23.368;2024-03-23T07:38:23;9.52;;;4.55;;
61291;SDS011;47165;42.664;23.368;2024-03-23T07:40:48;6.00;;;4.20;;
61291;SDS011;47165;42.664;23.368;2024-03-23T07:43:21;5.53;;;2.90;;
61291;SDS011;47165;42.664;23.368;2024-03-23T07:45:53;8.65;;;5.20;;
61291;SDS011;47165;42.664;23.368;2024-03-23T07:48:20;7.28;;;4.50;;
61291;SDS011;47165;42.664;23.368;2024-03-23T07:50:55;4.50;;;2.65;;
61291;SDS011;47165;42.664;23.368;2024-03-23T07:53:33;10.68;;;4.75;;
61291;SDS011;47165;42.664;23.368;2024-03-23T07:56:00;8.52;;;4.55;;
61291;SDS011;47165;42.664;23.368;2024-03-23T07:58:28;19.55;;;7.25;;
61291;SDS011;47165;42.664;23.368;2024-03-23T08:00:54;9.65;;;5.03;;
61291;SDS011;47165;42.664;23.368;2024-03-23T08:03:20;8.55;;;4.25;;
